createdAt,value
2023-11-04T00:00:55.559Z,3.00
2023-11-04T00:03:28.474Z,4.07
2023-11-04T00:05:55.319Z,2.78
2023-11-04T00:08:22.087Z,2.65
2023-11-04T00:10:51.201Z,3.00
2023-11-04T00:13:17.999Z,2.80
2023-11-04T00:15:46.180Z,4.53
2023-11-04T00:18:13.168Z,1.75
2023-11-04T00:20:45.985Z,2.83
2023-11-04T00:23:18.282Z,5.13
2023-11-04T00:25:46.289Z,3.40
2023-11-04T00:28:13.139Z,3.88
2023-11-04T00:30:40.009Z,3.63
2023-11-04T00:33:06.878Z,4.90
2023-11-04T00:35:33.653Z,4.13
2023-11-04T00:38:00.413Z,2.17
2023-11-04T00:40:27.304Z,4.10
2023-11-04T00:42:54.550Z,2.33
2023-11-04T00:45:22.675Z,1.90
2023-11-04T00:47:49.748Z,3.80
2023-11-04T00:50:20.880Z,3.35
2023-11-04T00:52:48.934Z,2.42
2023-11-04T00:55:15.741Z,3.75
2023-11-04T00:57:42.595Z,2.40
2023-11-04T01:00:10.837Z,3.42
2023-11-04T01:02:37.653Z,3.97
2023-11-04T01:05:05.047Z,5.32
2023-11-04T01:07:32.406Z,2.78
2023-11-04T01:09:59.192Z,4.22
2023-11-04T01:12:26.611Z,1.90
2023-11-04T01:14:54.358Z,3.80
2023-11-04T01:17:22.371Z,3.25
2023-11-04T01:19:49.142Z,3.03
2023-11-04T01:22:18.677Z,3.78
2023-11-04T01:24:45.474Z,3.28
2023-11-04T01:27:18.478Z,2.80
2023-11-04T01:29:45.373Z,3.05
2023-11-04T01:32:14.329Z,3.00
2023-11-04T01:34:41.143Z,1.88
2023-11-04T01:37:07.962Z,3.35
2023-11-04T01:39:34.956Z,3.70
2023-11-04T01:42:07.205Z,6.05
2023-11-04T01:44:36.525Z,3.30
2023-11-04T01:47:04.040Z,3.35
2023-11-04T01:49:30.803Z,3.30
2023-11-04T01:51:59.919Z,3.58
2023-11-04T01:54:27.765Z,4.65
2023-11-04T01:56:55.259Z,3.42
2023-11-04T01:59:24.147Z,4.88
2023-11-04T02:01:50.987Z,2.13
2023-11-04T02:04:18.169Z,2.45
2023-11-04T02:06:54.988Z,2.45
2023-11-04T02:09:25.382Z,2.63
2023-11-04T02:11:54.801Z,3.72
2023-11-04T02:14:22.900Z,2.08
2023-11-04T02:16:50.171Z,2.78
2023-11-04T02:19:20.140Z,2.40
2023-11-04T02:24:17.805Z,2.75
2023-11-04T02:26:44.579Z,2.30
2023-11-04T02:29:11.358Z,1.80
2023-11-04T02:31:39.382Z,2.15
2023-11-04T02:34:06.237Z,5.30
2023-11-04T02:36:37.421Z,3.00
2023-11-04T02:39:04.468Z,3.03
2023-11-04T02:41:31.183Z,3.58
2023-11-04T02:43:57.976Z,6.60
2023-11-04T02:46:25.998Z,2.70
2023-11-04T02:48:52.838Z,2.10
2023-11-04T02:51:19.710Z,2.13
2023-11-04T02:53:46.471Z,2.45
2023-11-04T02:56:16.624Z,2.30
2023-11-04T02:58:43.795Z,3.42
2023-11-04T03:01:10.523Z,2.60
2023-11-04T03:03:37.439Z,2.78
2023-11-04T03:06:04.444Z,5.22
2023-11-04T03:08:31.713Z,2.20
2023-11-04T03:10:58.429Z,2.35
2023-11-04T03:13:26.949Z,2.25
2023-11-04T03:15:53.766Z,2.35
2023-11-04T03:18:20.776Z,3.88
2023-11-04T03:20:48.819Z,1.67
2023-11-04T03:23:15.582Z,2.30
2023-11-04T03:25:42.952Z,1.92
2023-11-04T03:28:10.764Z,1.65
2023-11-04T03:30:37.869Z,1.90
2023-11-04T03:33:04.808Z,2.65
2023-11-04T03:35:31.744Z,2.83
2023-11-04T03:37:58.605Z,2.05
2023-11-04T03:40:27.439Z,2.78
2023-11-04T03:42:54.251Z,2.88
2023-11-04T03:45:21.066Z,4.32
2023-11-04T03:47:48.046Z,2.70
2023-11-04T03:50:14.852Z,2.42
2023-11-04T03:52:44.195Z,2.33
2023-11-04T03:55:10.946Z,3.75
2023-11-04T03:57:37.756Z,2.40
2023-11-04T04:00:04.916Z,2.10
2023-11-04T04:02:31.801Z,2.28
2023-11-04T04:04:59.442Z,2.17
2023-11-04T04:07:26.192Z,2.75
2023-11-04T04:09:53.227Z,3.15
2023-11-04T04:12:20.190Z,2.13
2023-11-04T04:14:47.200Z,2.83
2023-11-04T04:17:14.132Z,2.38
2023-11-04T04:19:40.917Z,4.50
2023-11-04T04:22:09.120Z,2.38
2023-11-04T04:24:37.259Z,1.88
2023-11-04T04:27:06.004Z,2.88
2023-11-04T04:29:33.136Z,5.28
2023-11-04T04:31:59.883Z,2.30
2023-11-04T04:34:26.680Z,2.55
2023-11-04T04:36:53.575Z,2.05
2023-11-04T04:39:23.952Z,3.00
2023-11-04T04:41:50.993Z,2.60
2023-11-04T04:44:18.282Z,3.88
2023-11-04T04:46:45.099Z,3.30
2023-11-04T04:49:12.137Z,2.20
2023-11-04T04:51:40.011Z,3.75
2023-11-04T04:54:09.687Z,3.85
2023-11-04T04:56:36.419Z,4.90
2023-11-04T04:59:04.192Z,7.30
2023-11-04T05:01:32.222Z,5.82
2023-11-04T05:03:59.070Z,2.50
2023-11-04T05:06:26.735Z,2.90
2023-11-04T05:08:53.520Z,3.05
2023-11-04T05:11:20.288Z,3.97
2023-11-04T05:13:48.661Z,3.33
2023-11-04T05:16:15.608Z,2.38
2023-11-04T05:18:42.534Z,2.10
2023-11-04T05:21:09.386Z,5.68
2023-11-04T05:23:36.303Z,5.18
2023-11-04T05:26:03.252Z,4.13
2023-11-04T05:28:30.045Z,2.47
2023-11-04T05:30:57.142Z,3.17
2023-11-04T05:33:24.447Z,2.50
2023-11-04T05:35:51.344Z,2.75
2023-11-04T05:38:19.532Z,2.83
2023-11-04T05:40:48.979Z,3.00
2023-11-04T05:43:16.531Z,3.40
2023-11-04T05:45:43.408Z,3.47
2023-11-04T05:48:10.323Z,4.63
2023-11-04T05:50:37.131Z,2.60
2023-11-04T05:53:04.803Z,4.80
2023-11-04T05:55:32.496Z,3.13
2023-11-04T05:58:02.568Z,3.28
2023-11-04T06:00:29.765Z,2.35
2023-11-04T06:02:56.615Z,4.22
2023-11-04T06:05:25.397Z,2.83
2023-11-04T06:07:52.174Z,3.40
2023-11-04T06:10:19.098Z,5.28
2023-11-04T06:12:45.885Z,3.00
2023-11-04T06:15:12.707Z,4.50
2023-11-04T06:17:39.977Z,2.85
2023-11-04T06:20:07.408Z,3.30
2023-11-04T06:22:35.734Z,3.40
2023-11-04T06:25:03.659Z,3.25
2023-11-04T06:27:31.529Z,4.78
2023-11-04T06:29:58.943Z,4.80
2023-11-04T06:32:25.930Z,6.22
2023-11-04T06:34:52.881Z,4.30
2023-11-04T06:37:19.584Z,5.40
2023-11-04T06:39:47.897Z,4.45
2023-11-04T06:42:19.771Z,3.58
2023-11-04T06:44:47.183Z,3.10
2023-11-04T06:47:14.099Z,2.95
2023-11-04T06:49:40.907Z,5.22
2023-11-04T06:52:07.753Z,3.47
2023-11-04T06:54:34.856Z,7.20
2023-11-04T06:57:01.596Z,3.50
2023-11-04T06:59:28.465Z,6.65
2023-11-04T07:01:55.199Z,3.65
2023-11-04T07:04:23.696Z,9.30
2023-11-04T07:06:53.727Z,7.53
2023-11-04T07:09:20.523Z,8.35
2023-11-04T07:11:47.313Z,10.07
2023-11-04T07:14:15.451Z,6.18
2023-11-04T07:16:42.186Z,5.32
2023-11-04T07:19:11.672Z,8.23
2023-11-04T07:21:39.095Z,8.27
2023-11-04T07:24:06.457Z,4.53
2023-11-04T07:26:33.240Z,8.13
2023-11-04T07:28:59.984Z,6.28
2023-11-04T07:31:28.776Z,5.35
2023-11-04T07:33:56.066Z,5.03
2023-11-04T07:36:27.581Z,4.85
2023-11-04T07:38:54.921Z,3.88
2023-11-04T07:41:23.063Z,4.28
2023-11-04T07:43:50.367Z,5.43
2023-11-04T07:46:17.942Z,3.47
2023-11-04T07:48:44.898Z,4.32
2023-11-04T07:51:12.258Z,3.85
2023-11-04T07:53:39.367Z,4.35
2023-11-04T07:56:06.738Z,5.18
2023-11-04T07:58:33.663Z,4.07
2023-11-04T08:01:00.515Z,5.75
2023-11-04T08:03:27.443Z,5.40
2023-11-04T08:05:54.442Z,5.13
2023-11-04T08:08:21.704Z,4.07
2023-11-04T08:10:49.875Z,4.35
2023-11-04T08:13:16.876Z,3.37
2023-11-04T08:15:43.606Z,3.35
2023-11-04T08:18:11.352Z,3.95
2023-11-04T08:20:38.606Z,4.88
2023-11-04T08:23:07.432Z,5.00
2023-11-04T08:25:34.201Z,3.63
2023-11-04T08:28:02.112Z,4.88
2023-11-04T08:30:29.118Z,5.85
2023-11-04T08:32:57.475Z,3.95
2023-11-04T08:35:24.269Z,4.38
2023-11-04T08:37:54.473Z,3.92
2023-11-04T08:40:22.819Z,3.78
2023-11-04T08:42:49.633Z,4.65
2023-11-04T08:45:16.828Z,5.07
2023-11-04T08:47:45.170Z,4.28
2023-11-04T08:50:12.343Z,3.10
2023-11-04T08:52:39.933Z,3.70
2023-11-04T08:55:09.433Z,5.63
2023-11-04T08:57:36.389Z,3.85
2023-11-04T09:00:07.139Z,5.28
2023-11-04T09:02:34.056Z,3.78
2023-11-04T09:05:07.670Z,3.92
2023-11-04T09:07:36.669Z,4.90
2023-11-04T09:10:04.267Z,3.85
2023-11-04T09:12:31.148Z,2.75
2023-11-04T09:14:58.022Z,2.95
2023-11-04T09:17:24.787Z,2.47
2023-11-04T09:19:52.714Z,4.47
2023-11-04T09:22:19.657Z,8.27
2023-11-04T09:24:46.722Z,5.78
2023-11-04T09:27:14.461Z,3.63
2023-11-04T09:29:41.118Z,5.15
2023-11-04T09:32:08.205Z,6.05
2023-11-04T09:34:35.690Z,3.92
2023-11-04T09:37:02.642Z,6.97
2023-11-04T09:39:29.426Z,4.95
2023-11-04T09:41:58.259Z,7.20
2023-11-04T09:44:25.002Z,3.22
2023-11-04T09:46:52.505Z,4.35
2023-11-04T09:49:19.728Z,3.30
2023-11-04T09:51:47.099Z,5.10
2023-11-04T09:54:15.555Z,3.38
2023-11-04T09:56:44.260Z,5.82
2023-11-04T09:59:11.109Z,2.83
2023-11-04T10:01:38.137Z,3.33
2023-11-04T10:04:05.369Z,5.03
2023-11-04T10:06:34.203Z,3.45
2023-11-04T10:09:02.709Z,3.88
2023-11-04T10:11:30.237Z,4.30
2023-11-04T10:13:58.274Z,4.65
2023-11-04T10:16:25.373Z,10.43
2023-11-04T10:18:53.990Z,5.75
2023-11-04T10:21:20.861Z,4.72
2023-11-04T10:23:50.349Z,2.72
2023-11-04T10:26:17.382Z,3.15
2023-11-04T10:28:44.885Z,2.20
2023-11-04T10:31:15.661Z,2.38
2023-11-04T10:33:44.257Z,3.28
2023-11-04T10:36:13.918Z,3.10
2023-11-04T10:38:46.008Z,3.08
2023-11-04T10:41:16.817Z,3.22
2023-11-04T10:44:04.810Z,4.43
2023-11-04T10:46:31.874Z,2.90
2023-11-04T10:49:20.352Z,5.30
2023-11-04T10:52:17.967Z,4.40
2023-11-04T10:55:05.985Z,4.50
2023-11-04T10:57:48.147Z,2.80
2023-11-04T11:00:21.468Z,5.30
2023-11-04T11:02:51.417Z,5.45
2023-11-04T11:07:51.000Z,10.10
2023-11-04T11:10:21.192Z,1.65
2023-11-04T11:12:58.058Z,3.55
2023-11-04T11:15:25.038Z,3.63
2023-11-04T11:18:00.726Z,4.20
2023-11-04T11:20:32.649Z,3.38
2023-11-04T11:23:02.402Z,3.35
2023-11-04T11:25:31.781Z,2.67
2023-11-04T11:28:03.708Z,2.03
2023-11-04T11:30:35.242Z,4.35
2023-11-04T11:33:13.526Z,6.55
2023-11-04T11:36:16.536Z,4.20
2023-11-04T11:38:47.550Z,3.47
2023-11-04T11:41:16.156Z,4.05
2023-11-04T11:43:49.637Z,2.85
2023-11-04T11:46:16.406Z,3.63
2023-11-04T11:48:46.848Z,5.07
2023-11-04T11:51:15.463Z,1.75
2023-11-04T11:53:47.049Z,1.75
2023-11-04T11:56:14.082Z,2.28
2023-11-04T11:58:41.491Z,2.83
2023-11-04T12:01:15.198Z,2.88
2023-11-04T12:03:42.376Z,3.53
2023-11-04T12:06:12.726Z,8.60
2023-11-04T12:08:39.510Z,3.45
2023-11-04T12:11:07.340Z,6.88
2023-11-04T12:13:34.221Z,2.20
2023-11-04T12:16:02.068Z,3.90
2023-11-04T12:18:29.995Z,4.18
2023-11-04T12:20:57.085Z,3.25
2023-11-04T12:23:29.309Z,5.30
2023-11-04T12:25:57.855Z,5.70
2023-11-04T12:28:27.363Z,5.47
2023-11-04T12:31:12.044Z,5.75
2023-11-04T12:33:39.297Z,6.40
2023-11-04T12:36:09.742Z,3.60
2023-11-04T12:38:45.462Z,4.13
2023-11-04T12:41:15.768Z,3.50
2023-11-04T12:43:43.885Z,5.25
2023-11-04T12:46:12.343Z,6.55
2023-11-04T12:48:39.505Z,2.90
2023-11-04T12:51:06.785Z,3.25
2023-11-04T12:53:35.716Z,3.28
2023-11-04T12:56:02.809Z,3.67
2023-11-04T12:58:33.154Z,2.22
2023-11-04T13:01:00.923Z,3.33
2023-11-04T13:03:29.396Z,5.72
2023-11-04T13:05:57.017Z,7.72
2023-11-04T13:08:24.034Z,5.35
2023-11-04T13:10:51.892Z,3.35
2023-11-04T13:13:18.672Z,5.63
2023-11-04T13:15:45.545Z,3.72
2023-11-04T13:18:15.034Z,4.82
2023-11-04T13:20:41.865Z,3.65
2023-11-04T13:23:08.586Z,4.03
2023-11-04T13:25:36.190Z,3.70
2023-11-04T13:28:03.359Z,2.45
2023-11-04T13:30:31.886Z,4.32
2023-11-04T13:32:59.009Z,2.67
2023-11-04T13:35:26.926Z,2.63
2023-11-04T13:37:56.869Z,3.72
2023-11-04T13:42:50.601Z,3.35
2023-11-04T13:45:17.855Z,4.78
2023-11-04T13:47:45.477Z,5.30
2023-11-04T13:50:12.389Z,5.22
2023-11-04T13:52:40.870Z,7.32
2023-11-04T13:55:08.427Z,6.57
2023-11-04T13:57:35.388Z,3.45
2023-11-04T14:00:04.572Z,10.13
2023-11-04T14:02:31.360Z,4.78
2023-11-04T14:05:00.851Z,5.88
2023-11-04T14:07:28.416Z,7.70
2023-11-04T14:09:56.315Z,7.55
2023-11-04T14:12:23.157Z,5.50
2023-11-04T14:14:50.022Z,4.63
2023-11-04T14:17:16.804Z,9.25
2023-11-04T14:19:43.670Z,5.88
2023-11-04T14:22:11.429Z,5.95
2023-11-04T14:24:40.008Z,5.63
2023-11-04T14:27:06.840Z,5.68
2023-11-04T14:29:36.207Z,7.15
2023-11-04T14:32:03.602Z,5.97
2023-11-04T14:34:32.493Z,6.38
2023-11-04T14:36:59.963Z,5.10
2023-11-04T14:39:27.865Z,4.82
2023-11-04T14:41:56.023Z,2.58
2023-11-04T14:44:23.527Z,3.85
2023-11-04T14:46:50.882Z,6.32
2023-11-04T14:49:18.263Z,7.07
2023-11-04T14:51:45.134Z,3.92
2023-11-04T14:54:11.933Z,5.57
2023-11-04T14:56:40.746Z,5.65
2023-11-04T14:59:07.666Z,6.65
2023-11-04T15:01:58.554Z,4.65
2023-11-04T15:04:25.637Z,6.13
2023-11-04T15:06:52.933Z,7.28
2023-11-04T15:09:21.002Z,6.22
2023-11-04T15:11:47.868Z,8.50
2023-11-04T15:14:14.798Z,12.65
2023-11-04T15:16:41.866Z,7.45
2023-11-04T15:19:09.338Z,7.55
2023-11-04T15:21:36.263Z,7.60
2023-11-04T15:24:03.600Z,5.88
2023-11-04T15:26:30.510Z,6.47
2023-11-04T15:28:58.646Z,9.13
2023-11-04T15:31:25.405Z,11.38
2023-11-04T15:33:53.321Z,7.13
2023-11-04T15:36:20.092Z,19.83
2023-11-04T15:38:47.304Z,31.83
2023-11-04T15:41:14.174Z,16.67
2023-11-04T15:43:41.429Z,7.20
2023-11-04T15:46:08.221Z,6.53
2023-11-04T15:48:35.236Z,11.38
2023-11-04T15:51:03.094Z,9.15
2023-11-04T15:53:29.988Z,6.07
2023-11-04T15:55:59.390Z,6.00
2023-11-04T15:58:29.124Z,5.05
2023-11-04T16:00:57.753Z,6.70
2023-11-04T16:03:26.188Z,8.85
2023-11-04T16:05:53.010Z,6.53
2023-11-04T16:08:22.230Z,9.35
2023-11-04T16:10:49.966Z,19.42
2023-11-04T16:13:19.742Z,33.42
2023-11-04T16:15:51.106Z,30.58
2023-11-04T16:18:18.012Z,34.38
2023-11-04T16:20:46.296Z,36.60
2023-11-04T16:23:13.181Z,25.67
2023-11-04T16:25:40.062Z,11.75
2023-11-04T16:28:08.330Z,11.65
2023-11-04T16:30:37.268Z,11.13
2023-11-04T16:33:04.315Z,23.65
2023-11-04T16:35:31.601Z,24.50
2023-11-04T16:37:58.605Z,21.08
2023-11-04T16:40:26.633Z,20.77
2023-11-04T16:42:53.589Z,22.85
2023-11-04T16:45:20.965Z,19.88
2023-11-04T16:47:47.842Z,18.48
2023-11-04T16:50:18.538Z,15.05
2023-11-04T16:52:46.095Z,12.55
2023-11-04T16:55:13.531Z,17.27
2023-11-04T16:57:40.346Z,16.98
2023-11-04T17:00:10.901Z,14.70
2023-11-04T17:02:37.846Z,14.65
2023-11-04T17:05:05.023Z,17.17
2023-11-04T17:07:32.850Z,13.35
2023-11-04T17:10:01.670Z,9.82
2023-11-04T17:12:28.752Z,10.60
2023-11-04T17:14:56.162Z,18.25
2023-11-04T17:17:22.916Z,39.63
2023-11-04T17:19:51.928Z,52.63
2023-11-04T17:22:20.945Z,18.80
2023-11-04T17:24:47.912Z,18.17
2023-11-04T17:27:33.123Z,25.52
2023-11-04T17:29:59.861Z,74.38
2023-11-04T17:32:27.803Z,56.63
2023-11-04T17:34:54.571Z,25.67
2023-11-04T17:37:21.734Z,19.27
2023-11-04T17:39:48.537Z,21.13
2023-11-04T17:42:15.529Z,22.88
2023-11-04T17:44:42.861Z,34.58
2023-11-04T17:47:09.891Z,14.90
2023-11-04T17:49:41.719Z,10.13
2023-11-04T17:52:11.254Z,14.27
2023-11-04T17:54:38.413Z,14.88
2023-11-04T17:57:06.976Z,31.55
2023-11-04T17:59:35.973Z,21.88
2023-11-04T18:02:03.552Z,15.02
2023-11-04T18:04:32.237Z,10.23
2023-11-04T18:06:59.222Z,12.75
2023-11-04T18:09:26.108Z,18.65
2023-11-04T18:11:53.019Z,35.60
2023-11-04T18:14:22.296Z,27.45
2023-11-04T18:16:49.436Z,28.60
2023-11-04T18:19:17.365Z,44.95
2023-11-04T18:21:47.806Z,30.08
2023-11-04T18:24:15.881Z,25.25
2023-11-04T18:26:44.764Z,18.55
2023-11-04T18:29:12.665Z,11.10
2023-11-04T18:31:39.611Z,22.20
2023-11-04T18:34:06.614Z,12.13
2023-11-04T18:36:33.827Z,12.73
2023-11-04T18:39:01.680Z,17.23
2023-11-04T18:41:28.600Z,14.63
2023-11-04T18:43:55.389Z,14.82
2023-11-04T18:46:22.282Z,17.88
2023-11-04T18:48:49.807Z,16.88
2023-11-04T18:51:23.084Z,18.77
2023-11-04T18:53:55.419Z,18.02
2023-11-04T18:56:22.359Z,18.60
2023-11-04T18:58:49.742Z,17.35
2023-11-04T19:01:23.930Z,16.20
2023-11-04T19:03:51.336Z,14.00
2023-11-04T19:06:19.504Z,15.50
2023-11-04T19:08:47.253Z,18.27
2023-11-04T19:11:14.202Z,22.08
2023-11-04T19:13:40.947Z,18.27
2023-11-04T19:16:10.834Z,21.85
2023-11-04T19:21:06.677Z,25.85
2023-11-04T19:26:02.691Z,23.30
2023-11-04T19:28:29.766Z,42.42
2023-11-04T19:30:56.544Z,43.67
2023-11-04T19:33:23.424Z,49.88
2023-11-04T19:35:51.104Z,30.58
2023-11-04T19:38:18.734Z,35.35
2023-11-04T19:40:45.502Z,46.30
2023-11-04T19:43:14.089Z,48.33
2023-11-04T19:45:40.870Z,62.78
2023-11-04T19:48:09.286Z,42.78
2023-11-04T19:50:36.084Z,46.95
2023-11-04T19:53:03.884Z,45.72
2023-11-04T19:55:30.720Z,42.22
2023-11-04T19:57:58.493Z,36.80
2023-11-04T20:00:26.935Z,36.90
2023-11-04T20:02:59.893Z,47.65
2023-11-04T20:05:27.274Z,38.92
2023-11-04T20:07:57.438Z,38.10
2023-11-04T20:10:25.288Z,33.00
2023-11-04T20:12:56.704Z,36.17
2023-11-04T20:15:24.345Z,34.08
2023-11-04T20:17:51.414Z,37.00
2023-11-04T20:20:18.252Z,33.85
2023-11-04T20:22:45.047Z,31.02
2023-11-04T20:25:13.110Z,36.20
2023-11-04T20:27:40.200Z,37.72
2023-11-04T20:30:08.304Z,42.10
2023-11-04T20:32:37.285Z,37.70
2023-11-04T20:35:04.338Z,33.70
2023-11-04T20:37:32.070Z,35.20
2023-11-04T20:39:59.012Z,38.60
2023-11-04T20:42:26.010Z,38.58
2023-11-04T20:44:54.154Z,32.20
2023-11-04T20:47:21.901Z,37.33
2023-11-04T20:49:50.536Z,39.67
2023-11-04T20:52:17.874Z,38.60
2023-11-04T20:54:44.757Z,36.88
2023-11-04T20:57:11.515Z,38.35
2023-11-04T20:59:39.510Z,41.33
2023-11-04T21:02:09.680Z,41.30
2023-11-04T21:04:37.047Z,44.72
2023-11-04T21:07:05.254Z,38.03
2023-11-04T21:09:32.252Z,51.30
2023-11-04T21:12:01.817Z,36.20
2023-11-04T21:14:29.654Z,35.17
2023-11-04T21:16:57.495Z,36.47
2023-11-04T21:19:24.661Z,31.70
2023-11-04T21:21:52.845Z,31.38
2023-11-04T21:24:20.043Z,35.33
2023-11-04T21:26:46.810Z,36.08
2023-11-04T21:29:14.048Z,28.17
2023-11-04T21:31:40.846Z,31.15
2023-11-04T21:34:09.294Z,30.83
2023-11-04T21:36:37.152Z,33.67
2023-11-04T21:39:04.993Z,27.85
2023-11-04T21:41:32.434Z,30.13
2023-11-04T21:44:00.319Z,30.15
2023-11-04T21:46:27.187Z,31.05
2023-11-04T21:48:54.098Z,30.27
2023-11-04T21:51:22.653Z,25.85
2023-11-04T21:53:49.510Z,30.83
2023-11-04T21:56:16.408Z,24.98
2023-11-04T21:58:44.081Z,30.30
2023-11-04T22:01:12.868Z,25.98
2023-11-04T22:03:40.566Z,23.30
2023-11-04T22:06:08.507Z,25.38
2023-11-04T22:08:36.158Z,23.35
2023-11-04T22:11:03.891Z,23.75
2023-11-04T22:13:30.715Z,25.10
2023-11-04T22:15:58.155Z,22.80
2023-11-04T22:18:25.342Z,18.65
2023-11-04T22:20:52.608Z,23.45
2023-11-04T22:23:19.341Z,20.92
2023-11-04T22:25:46.800Z,24.73
2023-11-04T22:28:14.420Z,27.73
2023-11-04T22:30:41.253Z,37.60
2023-11-04T22:33:08.050Z,32.08
2023-11-04T22:35:34.855Z,25.58
2023-11-04T22:38:01.621Z,20.92
2023-11-04T22:40:28.805Z,19.17
2023-11-04T22:42:55.697Z,20.92
2023-11-04T22:45:22.441Z,16.08
2023-11-04T22:47:49.296Z,22.75
2023-11-04T22:50:16.237Z,18.20
2023-11-04T22:52:43.002Z,23.30
2023-11-04T22:55:09.807Z,19.50
2023-11-04T22:57:36.651Z,19.80
2023-11-04T23:00:06.152Z,23.08
2023-11-04T23:02:34.715Z,17.55
2023-11-04T23:05:01.607Z,19.23
2023-11-04T23:07:31.575Z,19.50
2023-11-04T23:12:24.994Z,17.30
2023-11-04T23:14:52.570Z,24.67
2023-11-04T23:17:19.308Z,22.63
2023-11-04T23:19:46.070Z,19.92
2023-11-04T23:22:12.858Z,34.55
2023-11-04T23:24:39.696Z,35.58
2023-11-04T23:27:06.615Z,28.40
2023-11-04T23:29:33.585Z,23.17
2023-11-04T23:32:00.925Z,22.88
2023-11-04T23:34:27.731Z,30.20
2023-11-04T23:36:54.536Z,21.25
2023-11-04T23:39:24.281Z,24.15
2023-11-04T23:41:53.821Z,21.70
2023-11-04T23:44:20.551Z,17.27
2023-11-04T23:46:48.782Z,14.60
2023-11-04T23:49:15.701Z,14.65
2023-11-04T23:51:42.505Z,15.10
2023-11-04T23:54:09.249Z,15.55
2023-11-04T23:56:35.988Z,16.55
2023-11-04T23:59:03.564Z,15.73
